Time;durP1;ratioP1;P1;durP2;ratioP2;P2;SDS_P1;SDS_P2;PMS_P1;PMS_P2;Temp;Humidity;BMP_temperature;BMP_pressure;BME280_temperature;BME280_humidity;BME280_pressure;Samples;Min_cycle;Max_cycle;Signal;HPM_P1;HPM_P2
2022/08/26 00:00:50;;;;;;;11.38;6.53;;;;;;;;;;4973202;28;20110;-61
2022/08/26 00:03:17;;;;;;;7.55;6.18;;;;;;;;;;4968980;28;20114;-61
2022/08/26 00:05:44;;;;;;;8.90;6.47;;;;;;;;;;4972364;28;20085;-62
2022/08/26 00:08:11;;;;;;;8.27;6.50;;;;;;;;;;4971527;28;20095;-65
2022/08/26 00:10:37;;;;;;;10.90;6.80;;;;;;;;;;4967178;28;20066;-63
2022/08/26 00:13:04;;;;;;;9.32;6.68;;;;;;;;;;4974344;28;20042;-61
2022/08/26 00:15:30;;;;;;;10.25;6.70;;;;;;;;;;4969540;28;20369;-61
2022/08/26 00:17:55;;;;;;;8.98;6.28;;;;;;;;;;4972540;28;20545;-62
2022/08/26 00:20:30;;;;;;;9.07;6.57;;;;;;;;;;4972041;28;20027;-62
2022/08/26 00:22:55;;;;;;;9.88;6.55;;;;;;;;;;4974744;28;20030;-62
2022/08/26 00:25:21;;;;;;;9.68;7.18;;;;;;;;;;4969970;28;20034;-61
2022/08/26 00:27:47;;;;;;;9.85;6.55;;;;;;;;;;4972446;28;20039;-61
2022/08/26 00:30:21;;;;;;;9.27;6.80;;;;;;;;;;4970817;28;20459;-65
2022/08/26 00:32:46;;;;;;;9.80;6.72;;;;;;;;;;4971855;28;20041;-61
2022/08/26 00:35:12;;;;;;;10.38;6.65;;;;;;;;;;4973009;28;20399;-65
2022/08/26 00:37:39;;;;;;;10.55;6.95;;;;;;;;;;4969330;28;20467;-62
2022/08/26 00:40:08;;;;;;;10.32;6.82;;;;;;;;;;4971484;28;20042;-62
2022/08/26 00:42:33;;;;;;;8.48;6.60;;;;;;;;;;4965422;28;20621;-61
2022/08/26 00:44:59;;;;;;;10.15;7.07;;;;;;;;;;4968258;28;20039;-61
2022/08/26 00:47:37;;;;;;;12.38;7.30;;;;;;;;;;4972374;28;20034;-61
2022/08/26 00:50:07;;;;;;;10.00;6.75;;;;;;;;;;4972725;28;20027;-62
2022/08/26 00:52:33;;;;;;;;;;;;;;;;;;4970253;28;20740;-61
2022/08/26 00:55:14;;;;;;;11.82;7.13;;;;;;;;;;4971240;28;19914;-62
2022/08/26 00:57:40;;;;;;;12.20;7.57;;;;;;;;;;4957183;28;20125;-62
2022/08/26 01:00:10;;;;;;;11.18;7.28;;;;;;;;;;4971749;28;20170;-62
2022/08/26 01:02:37;;;;;;;10.45;7.45;;;;;;;;;;4968317;28;20050;-62
2022/08/26 01:05:05;;;;;;;12.45;7.72;;;;;;;;;;4971613;28;20039;-62
2022/08/26 01:07:33;;;;;;;11.13;7.50;;;;;;;;;;4970989;28;20038;-62
2022/08/26 01:10:01;;;;;;;11.80;7.43;;;;;;;;;;4968041;28;20146;-60
2022/08/26 01:12:30;;;;;;;12.05;8.10;;;;;;;;;;4970894;28;20034;-61
2022/08/26 01:14:56;;;;;;;11.30;7.43;;;;;;;;;;4969200;28;20043;-65
2022/08/26 01:17:21;;;;;;;12.55;7.40;;;;;;;;;;4970431;28;20460;-61
2022/08/26 01:19:58;;;;;;;12.07;8.00;;;;;;;;;;4968129;28;20061;-62
2022/08/26 01:22:40;;;;;;;10.60;7.35;;;;;;;;;;4970970;28;20038;-61
2022/08/26 01:25:05;;;;;;;9.70;7.32;;;;;;;;;;4969851;28;20045;-61
2022/08/26 01:27:32;;;;;;;10.93;8.07;;;;;;;;;;4970895;28;20031;-61
2022/08/26 01:29:59;;;;;;;10.77;7.88;;;;;;;;;;4971615;28;20038;-62
2022/08/26 01:32:27;;;;;;;13.40;8.30;;;;;;;;;;4969042;28;20042;-62
2022/08/26 01:34:53;;;;;;;12.25;8.02;;;;;;;;;;4965525;28;20035;-65
2022/08/26 01:37:25;;;;;;;12.07;7.68;;;;;;;;;;4964103;28;20399;-65
2022/08/26 01:39:54;;;;;;;16.40;7.68;;;;;;;;;;4966762;28;20038;-61
2022/08/26 01:42:22;;;;;;;13.88;7.72;;;;;;;;;;4970042;28;20034;-62
2022/08/26 01:44:58;;;;;;;14.45;7.82;;;;;;;;;;4969860;28;20118;-61
2022/08/26 01:47:25;;;;;;;10.68;7.90;;;;;;;;;;4969638;28;20074;-61
2022/08/26 01:49:53;;;;;;;13.88;8.40;;;;;;;;;;4968160;28;20034;-62
2022/08/26 01:52:23;;;;;;;10.18;7.88;;;;;;;;;;4971408;28;20038;-64
2022/08/26 01:54:50;;;;;;;10.60;7.93;;;;;;;;;;4970550;28;20663;-61
2022/08/26 01:57:17;;;;;;;16.48;8.60;;;;;;;;;;4971011;28;20054;-66
2022/08/26 01:59:44;;;;;;;11.70;8.00;;;;;;;;;;4970098;28;20113;-62
2022/08/26 02:02:10;;;;;;;10.95;7.70;;;;;;;;;;4971522;28;20041;-63
2022/08/26 02:04:40;;;;;;;12.45;8.02;;;;;;;;;;4969364;28;20150;-62
2022/08/26 02:07:08;;;;;;;15.63;8.13;;;;;;;;;;4970808;28;20034;-62
2022/08/26 02:09:37;;;;;;;12.93;8.13;;;;;;;;;;4967916;28;20811;-60
2022/08/26 02:12:03;;;;;;;11.55;8.63;;;;;;;;;;4971018;28;20037;-60
2022/08/26 02:14:33;;;;;;;12.25;8.55;;;;;;;;;;4966283;28;20090;-61
2022/08/26 02:16:59;;;;;;;13.13;8.90;;;;;;;;;;4970645;28;20061;-60
2022/08/26 02:19:29;;;;;;;13.70;9.05;;;;;;;;;;4970451;28;20122;-60
2022/08/26 02:21:56;;;;;;;12.37;9.90;;;;;;;;;;4969932;28;20077;-62
2022/08/26 02:24:25;;;;;;;16.00;9.77;;;;;;;;;;4969944;28;20131;-65
2022/08/26 02:26:51;;;;;;;13.95;9.63;;;;;;;;;;4969957;28;20066;-61
2022/08/26 02:29:30;;;;;;;17.73;10.00;;;;;;;;;;4971003;28;20073;-63
2022/08/26 02:31:56;;;;;;;15.82;11.13;;;;;;;;;;4971331;28;20064;-60
2022/08/26 02:34:27;;;;;;;17.05;11.75;;;;;;;;;;4966942;28;21629;-65
2022/08/26 02:36:52;;;;;;;15.68;11.07;;;;;;;;;;4965769;28;20064;-60
2022/08/26 02:39:18;;;;;;;14.73;11.20;;;;;;;;;;4969502;28;20538;-61
2022/08/26 02:41:44;;;;;;;19.33;13.10;;;;;;;;;;4961447;28;20537;-61
2022/08/26 02:44:10;;;;;;;17.60;13.45;;;;;;;;;;4963921;28;20419;-61
2022/08/26 02:46:36;;;;;;;23.17;14.88;;;;;;;;;;4963068;28;20039;-60
2022/08/26 02:49:02;;;;;;;24.00;16.70;;;;;;;;;;4962216;28;20049;-64
2022/08/26 02:51:28;;;;;;;22.80;17.50;;;;;;;;;;4963104;28;20030;-62
2022/08/26 02:53:53;;;;;;;21.35;15.50;;;;;;;;;;4970844;28;20034;-60
2022/08/26 02:56:18;;;;;;;21.65;16.60;;;;;;;;;;4970494;28;20047;-61
2022/08/26 02:58:44;;;;;;;23.23;18.55;;;;;;;;;;4970349;28;20038;-61
2022/08/26 03:01:26;;;;;;;25.83;19.67;;;;;;;;;;4970934;28;20035;-61
2022/08/26 03:03:52;;;;;;;32.33;23.92;;;;;;;;;;4965434;28;22108;-61
2022/08/26 03:06:18;;;;;;;37.67;26.90;;;;;;;;;;4969299;28;20035;-61
2022/08/26 03:08:44;;;;;;;39.22;28.42;;;;;;;;;;4968678;28;20034;-62
2022/08/26 03:11:10;;;;;;;37.03;28.60;;;;;;;;;;4968569;28;20031;-60
2022/08/26 03:13:36;;;;;;;43.75;31.23;;;;;;;;;;4959228;28;20030;-62
2022/08/26 03:16:02;;;;;;;37.00;29.88;;;;;;;;;;4969210;28;20041;-61
2022/08/26 03:18:27;;;;;;;40.35;29.98;;;;;;;;;;4967644;28;20038;-62
2022/08/26 03:20:53;;;;;;;44.33;32.67;;;;;;;;;;4968189;28;20039;-62
2022/08/26 03:23:18;;;;;;;43.25;34.13;;;;;;;;;;4970308;28;20042;-62
2022/08/26 03:25:48;;;;;;;46.22;35.10;;;;;;;;;;4970417;28;20026;-62
2022/08/26 03:28:14;;;;;;;43.38;34.00;;;;;;;;;;4973279;28;20135;-65
2022/08/26 03:30:39;;;;;;;43.78;33.92;;;;;;;;;;4972002;28;20035;-62
2022/08/26 03:33:07;;;;;;;43.25;34.50;;;;;;;;;;4973101;28;20337;-63
2022/08/26 03:35:32;;;;;;;49.95;38.42;;;;;;;;;;4971652;28;20542;-61
2022/08/26 03:37:59;;;;;;;49.03;38.20;;;;;;;;;;4971875;28;20038;-62
2022/08/26 03:40:25;;;;;;;51.58;40.15;;;;;;;;;;4973855;28;20057;-66
2022/08/26 03:42:50;;;;;;;54.17;42.05;;;;;;;;;;4974978;28;20031;-61
2022/08/26 03:45:17;;;;;;;61.65;44.22;;;;;;;;;;4973366;28;20074;-62
2022/08/26 03:47:43;;;;;;;60.10;45.67;;;;;;;;;;4973605;28;20862;-63
2022/08/26 03:50:13;;;;;;;58.85;45.75;;;;;;;;;;4971761;28;20042;-62
2022/08/26 03:52:39;;;;;;;60.42;46.20;;;;;;;;;;4974670;28;20464;-62
2022/08/26 03:55:05;;;;;;;65.30;48.33;;;;;;;;;;4973750;28;20039;-62
2022/08/26 03:57:31;;;;;;;64.20;49.35;;;;;;;;;;4973520;28;20047;-62
2022/08/26 03:59:56;;;;;;;70.07;49.10;;;;;;;;;;4971968;28;20041;-62
2022/08/26 04:02:22;;;;;;;71.00;51.78;;;;;;;;;;4972814;28;20383;-61
2022/08/26 04:04:47;;;;;;;68.20;50.72;;;;;;;;;;4968917;28;20484;-62
2022/08/26 04:07:13;;;;;;;78.28;53.55;;;;;;;;;;4970925;28;20090;-61
2022/08/26 04:09:38;;;;;;;76.05;54.20;;;;;;;;;;4971604;28;20109;-61
2022/08/26 04:12:04;;;;;;;74.88;52.95;;;;;;;;;;4974165;28;20042;-61
2022/08/26 04:14:31;;;;;;;77.72;56.95;;;;;;;;;;4972183;28;20503;-65
2022/08/26 04:16:57;;;;;;;82.63;57.33;;;;;;;;;;4970290;28;20045;-61
2022/08/26 04:19:23;;;;;;;86.13;59.92;;;;;;;;;;4973066;28;20038;-61
2022/08/26 04:21:51;;;;;;;92.80;61.90;;;;;;;;;;4972138;28;20049;-61
2022/08/26 04:24:19;;;;;;;83.53;58.47;;;;;;;;;;4974054;28;20058;-61
2022/08/26 04:26:45;;;;;;;87.30;59.83;;;;;;;;;;4971434;28;20137;-61
2022/08/26 04:29:17;;;;;;;92.82;61.20;;;;;;;;;;4973830;28;20376;-61
2022/08/26 04:31:44;;;;;;;89.28;58.65;;;;;;;;;;4970277;28;20030;-61
2022/08/26 04:34:10;;;;;;;80.13;58.28;;;;;;;;;;4971304;28;20035;-61
2022/08/26 04:36:36;;;;;;;87.38;58.70;;;;;;;;;;4965876;28;20038;-61
2022/08/26 04:39:02;;;;;;;84.25;57.28;;;;;;;;;;4971130;28;20549;-61
2022/08/26 04:41:28;;;;;;;85.82;58.40;;;;;;;;;;4973317;28;20507;-65
2022/08/26 04:43:54;;;;;;;85.07;58.92;;;;;;;;;;4973696;28;20090;-61
2022/08/26 04:46:22;;;;;;;88.30;57.72;;;;;;;;;;4972115;28;20506;-61
2022/08/26 04:48:51;;;;;;;87.22;57.15;;;;;;;;;;4970314;28;20221;-61
2022/08/26 04:51:18;;;;;;;86.45;56.03;;;;;;;;;;4969275;28;20042;-61
2022/08/26 04:53:44;;;;;;;82.50;56.33;;;;;;;;;;4971975;28;20167;-61
2022/08/26 04:56:10;;;;;;;90.65;57.83;;;;;;;;;;4972769;28;20034;-63
2022/08/26 04:58:35;;;;;;;85.75;56.05;;;;;;;;;;4971865;28;20100;-63
2022/08/26 05:01:01;;;;;;;85.45;53.92;;;;;;;;;;4972445;28;20495;-63
2022/08/26 05:03:27;;;;;;;85.45;56.28;;;;;;;;;;4971647;28;20051;-64
2022/08/26 05:05:53;;;;;;;82.95;54.80;;;;;;;;;;4972338;28;20062;-60
2022/08/26 05:08:21;;;;;;;82.72;53.20;;;;;;;;;;4971555;28;20911;-61
2022/08/26 05:10:55;;;;;;;82.50;51.40;;;;;;;;;;4972250;28;20030;-61
2022/08/26 05:13:22;;;;;;;74.25;49.78;;;;;;;;;;4971325;28;20039;-61
2022/08/26 05:15:48;;;;;;;82.07;51.33;;;;;;;;;;4970952;28;20037;-61
2022/08/26 05:18:16;;;;;;;76.15;49.45;;;;;;;;;;4971975;28;20039;-61
2022/08/26 05:20:47;;;;;;;71.38;48.97;;;;;;;;;;4970570;28;20030;-61
2022/08/26 05:23:13;;;;;;;78.30;48.03;;;;;;;;;;4971429;28;20062;-61
2022/08/26 05:25:44;;;;;;;75.97;48.83;;;;;;;;;;4970680;28;20070;-61
2022/08/26 05:28:11;;;;;;;73.32;47.30;;;;;;;;;;4971698;28;20037;-61
2022/08/26 05:30:38;;;;;;;66.30;45.72;;;;;;;;;;4970043;28;20077;-62
2022/08/26 05:33:05;;;;;;;68.85;45.08;;;;;;;;;;4971856;28;20097;-64
2022/08/26 05:35:32;;;;;;;73.68;47.40;;;;;;;;;;4971934;28;20369;-66
2022/08/26 05:37:59;;;;;;;73.75;46.95;;;;;;;;;;4972353;28;20549;-62
2022/08/26 05:40:25;;;;;;;69.43;46.70;;;;;;;;;;4973013;28;20050;-62
2022/08/26 05:42:51;;;;;;;68.13;45.65;;;;;;;;;;4971098;28;20629;-62
2022/08/26 05:45:18;;;;;;;67.32;45.75;;;;;;;;;;4972175;28;20034;-62
2022/08/26 05:47:44;;;;;;;65.05;42.42;;;;;;;;;;4970433;28;20038;-62
2022/08/26 05:50:09;;;;;;;66.35;43.92;;;;;;;;;;4970919;28;20034;-63
2022/08/26 05:52:35;;;;;;;57.83;40.65;;;;;;;;;;4971453;28;20380;-63
2022/08/26 05:55:00;;;;;;;58.03;41.85;;;;;;;;;;4966830;28;20426;-63
2022/08/26 05:57:28;;;;;;;58.30;40.75;;;;;;;;;;4972488;28;20053;-62
2022/08/26 05:59:55;;;;;;;62.20;42.05;;;;;;;;;;4963121;28;20202;-62
2022/08/26 06:02:20;;;;;;;62.28;41.05;;;;;;;;;;4972640;28;20038;-62
2022/08/26 06:04:46;;;;;;;59.00;40.85;;;;;;;;;;4970812;28;20030;-61
2022/08/26 06:07:11;;;;;;;52.97;38.83;;;;;;;;;;4970071;28;20117;-62
2022/08/26 06:09:37;;;;;;;56.97;40.28;;;;;;;;;;4971326;28;20039;-68
2022/08/26 06:12:03;;;;;;;54.80;39.40;;;;;;;;;;4971047;28;20035;-61
2022/08/26 06:14:29;;;;;;;56.38;38.55;;;;;;;;;;4971430;28;20486;-61
2022/08/26 06:16:55;;;;;;;56.00;39.05;;;;;;;;;;4972156;28;20037;-61
2022/08/26 06:19:21;;;;;;;55.97;37.67;;;;;;;;;;4971603;28;20093;-61
2022/08/26 06:21:48;;;;;;;53.55;37.38;;;;;;;;;;4971608;28;20464;-62
2022/08/26 06:27:01;;;;;;;52.90;36.97;;;;;;;;;;4969433;28;20049;-62
2022/08/26 06:29:27;;;;;;;55.33;37.30;;;;;;;;;;4971919;28;20035;-61
2022/08/26 06:31:54;;;;;;;54.90;37.63;;;;;;;;;;4970630;28;20061;-61
2022/08/26 06:34:19;;;;;;;53.03;37.85;;;;;;;;;;4972178;28;20061;-62
2022/08/26 06:36:46;;;;;;;55.72;37.15;;;;;;;;;;4970264;28;20452;-61
2022/08/26 06:39:13;;;;;;;50.40;36.20;;;;;;;;;;4968744;28;20035;-62
2022/08/26 06:41:43;;;;;;;50.03;36.00;;;;;;;;;;4969573;28;20034;-62
2022/08/26 06:44:10;;;;;;;50.20;35.17;;;;;;;;;;4968852;28;20042;-62
2022/08/26 06:46:36;;;;;;;45.90;34.88;;;;;;;;;;4969339;28;20039;-67
2022/08/26 06:49:02;;;;;;;45.17;33.95;;;;;;;;;;4971616;28;20035;-63
2022/08/26 06:51:31;;;;;;;50.88;34.45;;;;;;;;;;4970870;28;20077;-62
2022/08/26 06:53:58;;;;;;;42.35;33.33;;;;;;;;;;4970939;28;20065;-62
2022/08/26 06:56:27;;;;;;;46.95;33.25;;;;;;;;;;4971060;28;20039;-62
2022/08/26 06:58:53;;;;;;;47.88;32.95;;;;;;;;;;4970260;28;20051;-61
2022/08/26 07:01:23;;;;;;;47.45;31.27;;;;;;;;;;4967603;28;20057;-62
2022/08/26 07:03:50;;;;;;;43.15;30.38;;;;;;;;;;4970742;28;20031;-61
2022/08/26 07:06:19;;;;;;;38.88;29.02;;;;;;;;;;4975299;28;20035;-62
2022/08/26 07:08:49;;;;;;;46.15;29.75;;;;;;;;;;4973576;28;20104;-62
2022/08/26 07:11:18;;;;;;;42.78;29.45;;;;;;;;;;4976339;28;20034;-61
2022/08/26 07:13:49;;;;;;;42.40;28.08;;;;;;;;;;4973845;28;20031;-61
2022/08/26 07:16:16;;;;;;;;;;;;;;;;;;4976482;28;20542;-61
2022/08/26 07:18:42;;;;;;;35.30;26.88;;;;;;;;;;4971343;28;19914;-62
2022/08/26 07:21:10;;;;;;;44.20;29.67;;;;;;;;;;4976099;28;20101;-61
2022/08/26 07:23:36;;;;;;;43.72;31.50;;;;;;;;;;4974187;28;20034;-65
2022/08/26 07:26:15;;;;;;;39.20;27.92;;;;;;;;;;4975679;28;20081;-61
2022/08/26 07:28:41;;;;;;;38.92;29.50;;;;;;;;;;4973630;28;20101;-62
2022/08/26 07:31:08;;;;;;;37.53;28.50;;;;;;;;;;4974953;28;20400;-61
2022/08/26 07:33:35;;;;;;;42.63;29.55;;;;;;;;;;4974063;28;20050;-62
2022/08/26 07:36:00;;;;;;;38.38;28.23;;;;;;;;;;4972084;28;20038;-62
2022/08/26 07:38:26;;;;;;;41.53;27.48;;;;;;;;;;4973004;28;20146;-70
2022/08/26 07:40:51;;;;;;;42.20;27.25;;;;;;;;;;4973455;28;20046;-66
2022/08/26 07:43:17;;;;;;;34.72;26.33;;;;;;;;;;4974931;28;20089;-66
2022/08/26 07:45:42;;;;;;;34.00;25.50;;;;;;;;;;4974858;28;20038;-66
2022/08/26 07:48:08;;;;;;;41.78;25.75;;;;;;;;;;4974588;28;20509;-65
2022/08/26 07:50:34;;;;;;;34.13;25.02;;;;;;;;;;4975416;28;20038;-65
2022/08/26 07:53:01;;;;;;;34.55;25.25;;;;;;;;;;4973543;28;20019;-71
2022/08/26 07:55:27;;;;;;;35.30;24.48;;;;;;;;;;4975767;28;20057;-64
2022/08/26 07:57:53;;;;;;;30.40;23.95;;;;;;;;;;4974386;28;20054;-64
2022/08/26 08:00:19;;;;;;;32.05;23.85;;;;;;;;;;4973920;28;20038;-64
2022/08/26 08:02:45;;;;;;;32.13;23.50;;;;;;;;;;4972880;28;20046;-67
2022/08/26 08:05:13;;;;;;;35.58;26.58;;;;;;;;;;4975415;28;20027;-68
2022/08/26 08:07:38;;;;;;;33.08;25.55;;;;;;;;;;4973716;28;20375;-74
2022/08/26 08:10:06;;;;;;;33.25;24.42;;;;;;;;;;4956701;28;20035;-63
2022/08/26 08:12:32;;;;;;;33.05;24.15;;;;;;;;;;4973157;28;20038;-65
2022/08/26 08:14:57;;;;;;;34.75;26.02;;;;;;;;;;4974417;28;20062;-63
2022/08/26 08:17:22;;;;;;;34.88;27.02;;;;;;;;;;4973839;28;20061;-64
2022/08/26 08:19:48;;;;;;;30.90;22.05;;;;;;;;;;4974321;28;20023;-61
2022/08/26 08:22:15;;;;;;;28.00;20.10;;;;;;;;;;4973333;28;20042;-61
2022/08/26 08:24:41;;;;;;;30.48;20.65;;;;;;;;;;4973400;28;20031;-66
2022/08/26 08:27:07;;;;;;;31.13;21.13;;;;;;;;;;4973559;28;20089;-61
2022/08/26 08:29:35;;;;;;;27.27;20.15;;;;;;;;;;4973390;28;20034;-61
2022/08/26 08:32:01;;;;;;;26.63;19.65;;;;;;;;;;4972516;28;20030;-61
2022/08/26 08:34:27;;;;;;;26.23;20.30;;;;;;;;;;4973420;28;20376;-63
2022/08/26 08:36:53;;;;;;;26.48;19.75;;;;;;;;;;4972681;28;20399;-62
2022/08/26 08:39:19;;;;;;;27.55;20.05;;;;;;;;;;4973197;28;20038;-64
2022/08/26 08:41:57;;;;;;;29.75;19.98;;;;;;;;;;4971856;28;20482;-63
2022/08/26 08:44:24;;;;;;;26.60;20.40;;;;;;;;;;4972770;28;20038;-62
2022/08/26 08:46:54;;;;;;;24.77;19.35;;;;;;;;;;4971935;28;20121;-62
2022/08/26 08:49:21;;;;;;;25.85;19.45;;;;;;;;;;4973613;28;20038;-64
2022/08/26 08:52:17;;;;;;;26.75;19.45;;;;;;;;;;4972763;28;20122;-63
2022/08/26 08:54:43;;;;;;;29.40;20.95;;;;;;;;;;4967860;28;20046;-67
2022/08/26 08:57:26;;;;;;;27.77;19.90;;;;;;;;;;4969391;28;20109;-63
2022/08/26 09:00:08;;;;;;;25.40;20.63;;;;;;;;;;4972767;28;20089;-62
2022/08/26 09:02:59;;;;;;;27.83;21.17;;;;;;;;;;4974303;28;20031;-61
2022/08/26 09:05:40;;;;;;;29.30;21.58;;;;;;;;;;4973292;28;20031;-61
2022/08/26 09:08:28;;;;;;;31.00;21.75;;;;;;;;;;4970399;28;20030;-61
2022/08/26 09:10:59;;;;;;;31.08;23.40;;;;;;;;;;4961521;28;20492;-63
2022/08/26 09:13:26;;;;;;;32.60;20.70;;;;;;;;;;4972396;28;20042;-62
2022/08/26 09:16:12;;;;;;;31.85;21.13;;;;;;;;;;4972031;28;20022;-62
2022/08/26 09:18:38;;;;;;;29.35;20.95;;;;;;;;;;4972398;28;20034;-62
2022/08/26 09:21:09;;;;;;;27.55;20.25;;;;;;;;;;4973572;28;20027;-62
2022/08/26 09:23:37;;;;;;;26.27;20.30;;;;;;;;;;4971974;28;20061;-61
2022/08/26 09:26:18;;;;;;;29.60;20.92;;;;;;;;;;4972161;28;20035;-63
2022/08/26 09:28:58;;;;;;;28.42;20.13;;;;;;;;;;4969938;28;20065;-66
2022/08/26 09:31:33;;;;;;;27.90;19.52;;;;;;;;;;4956650;28;20047;-62
2022/08/26 09:34:24;;;;;;;26.38;17.90;;;;;;;;;;4968101;28;20117;-62
2022/08/26 09:36:52;;;;;;;26.08;18.45;;;;;;;;;;4967408;28;20483;-64
2022/08/26 09:39:26;;;;;;;27.70;18.63;;;;;;;;;;4970531;28;20383;-62
2022/08/26 09:42:10;;;;;;;28.38;20.13;;;;;;;;;;4972581;28;20089;-62
2022/08/26 09:44:58;;;;;;;27.08;20.35;;;;;;;;;;4967298;28;20018;-60
2022/08/26 09:47:30;;;;;;;25.38;19.98;;;;;;;;;;4970042;28;20046;-61
2022/08/26 09:50:04;;;;;;;25.08;20.05;;;;;;;;;;4972648;28;20031;-61
2022/08/26 09:52:30;;;;;;;24.80;21.48;;;;;;;;;;4972067;28;20067;-62
2022/08/26 09:55:10;;;;;;;27.75;20.33;;;;;;;;;;4971225;28;20488;-63
2022/08/26 09:57:44;;;;;;;27.07;19.10;;;;;;;;;;4968752;28;20480;-61
2022/08/26 10:00:32;;;;;;;27.23;17.73;;;;;;;;;;4972498;28;20288;-61
2022/08/26 10:02:59;;;;;;;21.70;15.88;;;;;;;;;;4972487;28;20077;-61
2022/08/26 10:06:02;;;;;;;21.25;16.40;;;;;;;;;;4969618;28;20031;-62
2022/08/26 10:08:31;;;;;;;22.40;16.90;;;;;;;;;;4963298;28;20399;-61
2022/08/26 10:11:00;;;;;;;18.17;14.63;;;;;;;;;;4970399;28;20058;-62
2022/08/26 10:13:41;;;;;;;20.20;14.02;;;;;;;;;;4972171;28;20030;-60
2022/08/26 10:16:17;;;;;;;19.45;13.13;;;;;;;;;;4972210;28;20158;-60
2022/08/26 10:19:00;;;;;;;16.63;13.02;;;;;;;;;;4972097;28;20042;-60
2022/08/26 10:21:39;;;;;;;20.25;13.65;;;;;;;;;;4970161;28;20042;-68
2022/08/26 10:24:07;;;;;;;20.88;13.25;;;;;;;;;;4971399;28;20118;-69
2022/08/26 10:26:51;;;;;;;17.60;12.57;;;;;;;;;;4971208;28;20494;-60
2022/08/26 10:29:21;;;;;;;19.40;14.40;;;;;;;;;;4973866;28;20427;-60
2022/08/26 10:31:58;;;;;;;20.45;13.95;;;;;;;;;;4969087;28;20041;-63
2022/08/26 10:34:23;;;;;;;18.92;13.50;;;;;;;;;;4962094;28;20042;-60
2022/08/26 10:36:56;;;;;;;18.98;12.95;;;;;;;;;;4974053;28;20035;-63
2022/08/26 10:39:33;;;;;;;20.67;12.65;;;;;;;;;;4966275;28;20039;-61
2022/08/26 10:42:06;;;;;;;21.90;15.50;;;;;;;;;;4971453;28;20081;-63
2022/08/26 10:44:34;;;;;;;18.95;15.13;;;;;;;;;;4977092;28;20039;-60
2022/08/26 10:47:11;;;;;;;17.25;13.90;;;;;;;;;;4967725;28;20476;-62
2022/08/26 10:49:38;;;;;;;22.38;14.93;;;;;;;;;;4973393;28;20086;-61
2022/08/26 10:52:18;;;;;;;21.02;13.80;;;;;;;;;;4975014;28;20042;-62
2022/08/26 10:54:56;;;;;;;21.05;14.65;;;;;;;;;;4974546;28;20039;-62
2022/08/26 10:57:26;;;;;;;21.27;15.43;;;;;;;;;;4975185;28;20043;-61
2022/08/26 11:03:12;;;;;;;21.35;13.50;;;;;;;;;;4972997;28;20436;-64
2022/08/26 11:05:37;;;;;;;19.85;13.57;;;;;;;;;;4975621;28;20030;-63
2022/08/26 11:08:18;;;;;;;20.15;13.00;;;;;;;;;;4973948;28;20506;-64
2022/08/26 11:10:43;;;;;;;;;;;;;;;;;;4975090;28;20026;-63
2022/08/26 11:13:09;;;;;;;16.60;12.77;;;;;;;;;;4970960;28;19964;-64
2022/08/26 11:15:37;;;;;;;23.00;13.35;;;;;;;;;;4975530;28;20090;-65
2022/08/26 11:18:35;;;;;;;20.70;12.30;;;;;;;;;;4970187;28;20434;-65
2022/08/26 11:21:00;;;;;;;20.27;12.35;;;;;;;;;;4975234;28;20042;-63
2022/08/26 11:23:36;;;;;;;14.77;10.95;;;;;;;;;;4974858;28;20031;-64
2022/08/26 11:26:07;;;;;;;20.50;13.40;;;;;;;;;;4975197;28;20031;-65
2022/08/26 11:28:36;;;;;;;19.90;12.48;;;;;;;;;;4970688;28;20031;-63
2022/08/26 11:31:02;;;;;;;16.10;11.82;;;;;;;;;;4974590;28;20101;-65
2022/08/26 11:33:51;;;;;;;17.45;11.65;;;;;;;;;;4974096;28;20042;-63
2022/08/26 11:36:45;;;;;;;17.92;12.43;;;;;;;;;;4973979;28;20030;-61
2022/08/26 11:39:18;;;;;;;18.10;11.93;;;;;;;;;;4969690;28;20054;-63
2022/08/26 11:41:49;;;;;;;18.45;12.30;;;;;;;;;;4973418;28;20627;-64
2022/08/26 11:44:18;;;;;;;15.88;12.02;;;;;;;;;;4973531;28;20134;-62
2022/08/26 11:46:55;;;;;;;15.65;11.80;;;;;;;;;;4974541;28;20030;-61
2022/08/26 11:49:21;;;;;;;17.17;11.77;;;;;;;;;;4974624;28;20035;-62
2022/08/26 11:51:46;;;;;;;15.05;10.90;;;;;;;;;;4958104;28;20049;-63
2022/08/26 11:54:19;;;;;;;20.30;11.77;;;;;;;;;;4969153;28;20496;-63
2022/08/26 11:56:47;;;;;;;18.10;11.27;;;;;;;;;;4972888;28;20038;-63
2022/08/26 11:59:18;;;;;;;19.17;10.90;;;;;;;;;;4972049;28;20058;-62
2022/08/26 12:01:48;;;;;;;19.58;10.68;;;;;;;;;;4973712;28;20079;-63
2022/08/26 12:04:27;;;;;;;15.23;9.90;;;;;;;;;;4974611;28;20041;-62
2022/08/26 12:06:53;;;;;;;17.00;9.65;;;;;;;;;;4973860;28;20043;-65
2022/08/26 12:09:28;;;;;;;15.57;8.45;;;;;;;;;;4970272;28;20129;-63
2022/08/26 12:12:09;;;;;;;16.17;9.48;;;;;;;;;;4973984;28;20043;-65
2022/08/26 12:14:35;;;;;;;17.45;8.85;;;;;;;;;;4973712;28;20041;-62
2022/08/26 12:17:24;;;;;;;16.35;9.25;;;;;;;;;;4973524;28;20031;-62
2022/08/26 12:19:50;;;;;;;13.73;8.32;;;;;;;;;;4972353;28;20038;-63
2022/08/26 12:22:24;;;;;;;12.57;8.50;;;;;;;;;;4973234;28;20662;-63
2022/08/26 12:25:00;;;;;;;14.68;8.10;;;;;;;;;;4974100;28;20038;-64
2022/08/26 12:27:36;;;;;;;17.33;8.55;;;;;;;;;;4967318;28;20027;-64
2022/08/26 12:30:21;;;;;;;18.30;8.60;;;;;;;;;;4963134;28;20031;-63
2022/08/26 12:33:02;;;;;;;15.82;9.05;;;;;;;;;;4970893;28;20027;-64
2022/08/26 12:35:28;;;;;;;14.75;8.27;;;;;;;;;;4972517;28;20042;-64
2022/08/26 12:37:55;;;;;;;13.57;7.57;;;;;;;;;;4972915;28;20530;-64
2022/08/26 12:40:34;;;;;;;15.02;7.70;;;;;;;;;;4972406;28;20034;-64
2022/08/26 12:43:05;;;;;;;15.15;8.55;;;;;;;;;;4988746;28;20038;-64
2022/08/26 12:45:34;;;;;;;13.30;7.60;;;;;;;;;;4963194;28;20050;-62
2022/08/26 12:48:29;;;;;;;14.57;8.00;;;;;;;;;;4964656;28;20065;-63
2022/08/26 12:50:56;;;;;;;15.98;7.20;;;;;;;;;;4977571;28;20049;-65
2022/08/26 12:53:28;;;;;;;13.50;7.47;;;;;;;;;;4983595;28;20085;-63
2022/08/26 12:56:18;;;;;;;12.70;7.15;;;;;;;;;;4985346;28;20134;-63
2022/08/26 12:58:43;;;;;;;16.80;7.18;;;;;;;;;;4982060;28;20054;-62
2022/08/26 13:01:09;;;;;;;19.27;7.90;;;;;;;;;;4988669;28;20120;-62
2022/08/26 13:03:37;;;;;;;15.85;6.63;;;;;;;;;;4978571;28;20042;-62
2022/08/26 13:06:30;;;;;;;11.77;5.95;;;;;;;;;;4970544;28;20038;-62
2022/08/26 13:09:23;;;;;;;18.23;6.00;;;;;;;;;;4984213;28;20645;-65
2022/08/26 13:11:51;;;;;;;15.65;6.40;;;;;;;;;;4978073;28;20454;-63
2022/08/26 13:14:18;;;;;;;12.38;5.82;;;;;;;;;;4990352;28;20038;-63
2022/08/26 13:16:45;;;;;;;13.80;5.60;;;;;;;;;;4983803;28;20104;-63
2022/08/26 13:19:14;;;;;;;9.82;5.88;;;;;;;;;;4989988;28;20034;-63
2022/08/26 13:21:46;;;;;;;14.80;5.70;;;;;;;;;;4967659;28;20031;-63
2022/08/26 13:24:15;;;;;;;11.82;5.65;;;;;;;;;;4967593;28;20042;-62
2022/08/26 13:26:43;;;;;;;13.38;5.63;;;;;;;;;;4974021;28;20039;-62
2022/08/26 13:29:09;;;;;;;14.75;5.78;;;;;;;;;;4971642;28;20035;-63
2022/08/26 13:31:35;;;;;;;14.27;5.13;;;;;;;;;;4971612;28;20081;-63
2022/08/26 13:34:02;;;;;;;13.80;5.18;;;;;;;;;;4971577;28;20424;-65
2022/08/26 13:36:27;;;;;;;13.30;5.30;;;;;;;;;;4973748;28;20126;-63
2022/08/26 13:38:53;;;;;;;12.98;5.68;;;;;;;;;;4971510;28;21993;-63
2022/08/26 13:41:18;;;;;;;11.35;5.43;;;;;;;;;;4972826;28;20027;-63
2022/08/26 13:43:44;;;;;;;14.38;6.03;;;;;;;;;;4970467;28;20053;-65
2022/08/26 13:46:09;;;;;;;10.18;5.47;;;;;;;;;;4965158;28;20039;-71
2022/08/26 13:48:35;;;;;;;10.18;5.70;;;;;;;;;;4973240;28;20046;-67
2022/08/26 13:51:03;;;;;;;9.63;5.68;;;;;;;;;;4971794;28;20365;-65
2022/08/26 13:53:29;;;;;;;11.00;6.18;;;;;;;;;;4969800;28;20038;-66
2022/08/26 13:55:59;;;;;;;9.32;5.65;;;;;;;;;;4971873;28;20066;-63
2022/08/26 13:58:25;;;;;;;13.77;5.72;;;;;;;;;;4972737;28;20046;-65
2022/08/26 14:00:50;;;;;;;10.93;5.72;;;;;;;;;;4971940;28;20383;-65
2022/08/26 14:03:16;;;;;;;10.98;5.90;;;;;;;;;;4972112;28;20037;-65
2022/08/26 14:05:41;;;;;;;13.55;5.90;;;;;;;;;;4968970;28;20464;-64
2022/08/26 14:08:07;;;;;;;13.50;5.95;;;;;;;;;;4971979;28;20034;-65
2022/08/26 14:10:33;;;;;;;12.82;6.00;;;;;;;;;;4968294;28;20031;-64
2022/08/26 14:12:58;;;;;;;13.73;5.97;;;;;;;;;;4971169;28;20416;-64
2022/08/26 14:15:24;;;;;;;12.93;5.90;;;;;;;;;;4967539;28;20066;-64
2022/08/26 14:17:49;;;;;;;11.38;5.70;;;;;;;;;;4970019;28;20034;-65
2022/08/26 14:20:22;;;;;;;11.65;5.70;;;;;;;;;;4970362;28;20101;-64
2022/08/26 14:22:47;;;;;;;13.32;5.80;;;;;;;;;;4961809;28;20062;-65
2022/08/26 14:25:13;;;;;;;11.32;5.93;;;;;;;;;;4970791;28;20066;-63
2022/08/26 14:27:39;;;;;;;11.10;6.05;;;;;;;;;;4966108;28;20455;-64
2022/08/26 14:30:06;;;;;;;9.70;5.57;;;;;;;;;;4970844;28;20062;-67
2022/08/26 14:32:32;;;;;;;9.10;5.38;;;;;;;;;;4971446;28;20113;-63
2022/08/26 14:34:57;;;;;;;8.50;5.30;;;;;;;;;;4972772;28;20118;-63
2022/08/26 14:37:23;;;;;;;8.32;4.80;;;;;;;;;;4970616;28;20093;-63
2022/08/26 14:39:49;;;;;;;11.07;4.05;;;;;;;;;;4972393;28;20113;-64
2022/08/26 14:42:21;;;;;;;10.35;4.05;;;;;;;;;;4960576;28;20130;-63